Time;durP1;ratioP1;P1;durP2;ratioP2;P2;SDS_P1;SDS_P2;PMS_P1;PMS_P2;Temp;Humidity;BMP_temperature;BMP_pressure;BME280_temperature;BME280_humidity;BME280_pressure;Samples;Min_cycle;Max_cycle;Signal;HPM_P1;HPM_P2
2021/06/06 00:02:23;;;;;;;4.15;2.20;;;21.40;85.00;;;;;;5110317;28;20456;-77
2021/06/06 00:04:48;;;;;;;4.07;2.70;;;21.40;84.90;;;;;;5110246;28;20023;-76
2021/06/06 00:07:14;;;;;;;3.00;2.30;;;21.40;84.90;;;;;;5109962;28;20436;-77
2021/06/06 00:09:40;;;;;;;3.35;2.17;;;21.30;84.70;;;;;;5110605;28;20072;-76
2021/06/06 00:12:07;;;;;;;4.63;2.25;;;21.30;84.60;;;;;;5110660;28;20016;-77
2021/06/06 00:14:36;;;;;;;3.53;2.17;;;21.30;84.60;;;;;;5111508;28;20479;-77
2021/06/06 00:17:07;;;;;;;2.75;2.17;;;21.30;84.50;;;;;;5110353;28;20169;-77
2021/06/06 00:19:33;;;;;;;3.40;2.28;;;21.30;84.40;;;;;;5112413;28;20027;-77
2021/06/06 00:21:59;;;;;;;3.65;2.28;;;21.30;84.30;;;;;;5115720;28;20102;-77
2021/06/06 00:24:30;;;;;;;2.85;2.17;;;21.30;84.30;;;;;;5114824;28;20024;-77
2021/06/06 00:26:56;;;;;;;3.08;2.10;;;21.30;84.10;;;;;;5115158;27;20020;-78
2021/06/06 00:29:22;;;;;;;3.45;2.13;;;21.30;84.40;;;;;;5114054;28;20034;-78
2021/06/06 00:31:48;;;;;;;3.35;2.08;;;21.30;84.80;;;;;;5113269;28;20073;-78
2021/06/06 00:34:14;;;;;;;3.17;2.33;;;21.30;85.30;;;;;;5115232;28;20035;-78
2021/06/06 00:36:40;;;;;;;3.25;2.28;;;21.30;85.60;;;;;;5115126;28;20031;-78
2021/06/06 00:39:06;;;;;;;3.35;2.20;;;21.30;85.90;;;;;;5114577;28;20024;-78
2021/06/06 00:41:34;;;;;;;5.18;2.33;;;21.30;86.10;;;;;;5114840;28;20031;-78
2021/06/06 00:44:00;;;;;;;3.60;2.13;;;21.30;86.40;;;;;;5115476;28;20020;-78
2021/06/06 00:46:28;;;;;;;4.95;2.30;;;21.30;86.50;;;;;;5114479;28;20040;-79
2021/06/06 00:48:55;;;;;;;3.10;2.20;;;21.30;86.60;;;;;;5115013;28;20503;-79
2021/06/06 00:51:25;;;;;;;3.45;2.30;;;21.30;86.80;;;;;;5114203;28;20035;-79
2021/06/06 00:54:20;;;;;;;2.97;2.15;;;21.30;86.80;;;;;;5114964;28;20055;-79
2021/06/06 00:56:48;;;;;;;3.00;2.22;;;21.20;86.70;;;;;;5105622;28;20410;-78
2021/06/06 00:59:18;;;;;;;4.07;2.22;;;21.20;86.80;;;;;;5114684;28;20376;-78
2021/06/06 01:01:44;;;;;;;3.00;2.33;;;21.20;86.70;;;;;;5113977;28;20491;-78
2021/06/06 01:04:12;;;;;;;4.40;2.47;;;21.20;86.70;;;;;;5114656;28;20072;-78
2021/06/06 01:06:46;;;;;;;3.42;2.30;;;21.20;86.70;;;;;;5114029;28;20023;-77
2021/06/06 01:09:13;;;;;;;3.33;2.22;;;21.20;86.60;;;;;;5112592;28;20055;-77
2021/06/06 01:11:58;;;;;;;2.80;2.38;;;21.20;86.40;;;;;;5113896;28;20477;-78
2021/06/06 01:14:38;;;;;;;3.17;2.17;;;21.20;86.30;;;;;;5114473;28;20173;-79
2021/06/06 01:17:40;;;;;;;3.40;2.05;;;21.20;86.30;;;;;;5114114;28;20034;-77
2021/06/06 01:20:34;;;;;;;4.50;2.20;;;21.20;86.10;;;;;;5112544;28;20036;-79
2021/06/06 01:23:07;;;;;;;4.25;2.58;;;21.10;86.00;;;;;;5114793;28;20051;-78
2021/06/06 01:25:42;;;;;;;3.67;2.20;;;21.10;85.80;;;;;;5114253;28;20059;-78
2021/06/06 01:28:11;;;;;;;3.42;2.30;;;21.10;85.70;;;;;;5114127;28;20024;-78
2021/06/06 01:30:42;;;;;;;3.25;2.10;;;21.10;85.60;;;;;;5112092;28;20115;-78
2021/06/06 01:33:10;;;;;;;3.67;2.30;;;21.10;85.50;;;;;;5112581;28;20517;-77
2021/06/06 01:35:59;;;;;;;2.28;1.65;;;21.10;85.40;;;;;;5113963;28;20469;-78
2021/06/06 01:38:43;;;;;;;2.72;2.00;;;21.10;85.20;;;;;;5113185;28;20023;-78
2021/06/06 01:41:16;;;;;;;2.90;2.00;;;21.10;85.10;;;;;;5113224;28;20027;-79
2021/06/06 01:43:46;;;;;;;3.97;2.38;;;21.10;85.00;;;;;;5112756;28;20510;-79
2021/06/06 01:46:23;;;;;;;3.15;2.40;;;21.10;84.90;;;;;;5113292;28;20428;-77
2021/06/06 01:48:50;;;;;;;2.55;2.05;;;21.10;84.80;;;;;;5113298;28;20036;-78
2021/06/06 01:51:20;;;;;;;4.28;2.28;;;21.00;84.60;;;;;;5113380;27;20012;-78
2021/06/06 01:53:48;;;;;;;4.25;2.28;;;21.10;84.60;;;;;;5113634;28;20077;-78
2021/06/06 01:56:21;;;;;;;3.17;2.13;;;21.00;84.40;;;;;;5113126;28;20019;-78
2021/06/06 01:58:52;;;;;;;4.03;2.03;;;21.00;84.40;;;;;;5113193;28;20024;-77
2021/06/06 02:01:21;;;;;;;2.67;2.00;;;21.00;84.20;;;;;;5113533;28;20487;-78
2021/06/06 02:03:52;;;;;;;3.97;2.50;;;21.00;84.00;;;;;;5113298;28;20113;-78
2021/06/06 02:06:21;;;;;;;3.22;1.92;;;21.00;84.10;;;;;;5112272;28;20024;-77
2021/06/06 02:08:48;;;;;;;3.60;2.22;;;21.00;83.90;;;;;;5113276;28;20039;-77
2021/06/06 02:11:21;;;;;;;2.50;2.03;;;21.00;83.80;;;;;;5112742;28;20016;-77
2021/06/06 02:13:53;;;;;;;3.78;2.58;;;21.00;83.80;;;;;;5091857;28;20518;-77
2021/06/06 02:16:25;;;;;;;3.50;2.00;;;21.00;83.60;;;;;;5100278;28;20452;-76
2021/06/06 02:18:50;;;;;;;4.10;2.17;;;21.00;83.50;;;;;;5113418;28;20039;-77
2021/06/06 02:21:18;;;;;;;3.70;2.47;;;21.00;83.30;;;;;;5112529;28;20016;-77
2021/06/06 02:23:46;;;;;;;3.55;2.40;;;21.00;83.30;;;;;;5113335;27;20098;-78
2021/06/06 02:26:29;;;;;;;2.58;2.30;;;20.90;83.20;;;;;;5111786;28;20043;-78
2021/06/06 02:29:17;;;;;;;3.33;2.22;;;20.90;83.00;;;;;;5111740;28;20035;-78
2021/06/06 02:32:07;;;;;;;3.03;2.13;;;20.90;82.90;;;;;;5111467;28;20479;-77
2021/06/06 02:34:55;;;;;;;2.67;1.92;;;20.90;82.90;;;;;;5095399;28;20126;-77
2021/06/06 02:37:28;;;;;;;4.43;2.00;;;20.90;82.80;;;;;;5112392;28;20020;-77
2021/06/06 02:40:05;;;;;;;2.60;2.10;;;20.90;82.60;;;;;;5113129;28;20085;-78
2021/06/06 02:42:35;;;;;;;3.60;2.30;;;20.90;82.70;;;;;;5113230;28;20062;-76
2021/06/06 02:45:20;;;;;;;2.97;2.03;;;20.90;82.40;;;;;;5113213;28;20027;-78
2021/06/06 02:47:47;;;;;;;4.43;2.33;;;20.90;82.70;;;;;;5092398;28;20024;-77
2021/06/06 02:50:26;;;;;;;2.67;2.13;;;20.90;82.30;;;;;;5090987;28;20020;-79
2021/06/06 02:53:04;;;;;;;3.05;2.20;;;20.80;82.10;;;;;;5094603;28;20024;-78
2021/06/06 02:55:39;;;;;;;2.97;2.10;;;20.90;82.10;;;;;;5112601;28;20023;-79
2021/06/06 02:58:16;;;;;;;2.90;2.03;;;20.90;82.10;;;;;;5110559;28;20031;-78
2021/06/06 03:00:45;;;;;;;2.85;2.15;;;20.90;81.90;;;;;;5111977;28;20027;-77
2021/06/06 03:03:25;;;;;;;2.83;2.00;;;20.80;81.80;;;;;;5111441;28;20047;-79
2021/06/06 03:05:54;;;;;;;2.88;2.10;;;20.80;81.90;;;;;;5112477;28;20027;-77
2021/06/06 03:08:20;;;;;;;2.80;1.95;;;20.80;81.80;;;;;;5111211;28;20035;-77
2021/06/06 03:10:46;;;;;;;2.60;1.80;;;20.80;81.60;;;;;;5111749;27;20030;-77
2021/06/06 03:13:38;;;;;;;3.03;2.00;;;20.80;81.40;;;;;;5112025;28;20028;-77
2021/06/06 03:16:04;;;;;;;3.50;2.03;;;20.80;81.30;;;;;;5111639;28;20107;-77
2021/06/06 03:18:34;;;;;;;3.53;1.88;;;20.80;81.40;;;;;;5112454;28;20043;-77
2021/06/06 03:21:21;;;;;;;2.28;1.77;;;20.80;81.30;;;;;;5111106;28;20018;-78
2021/06/06 03:24:00;;;;;;;2.25;1.80;;;20.80;81.30;;;;;;5111836;28;20028;-78
2021/06/06 03:26:26;;;;;;;3.28;1.85;;;20.80;81.10;;;;;;5111128;28;20038;-78
2021/06/06 03:28:53;;;;;;;2.83;1.80;;;20.80;80.90;;;;;;5111921;28;20483;-77
2021/06/06 03:31:28;;;;;;;4.25;2.00;;;20.80;81.00;;;;;;5111623;28;20077;-78
2021/06/06 03:33:59;;;;;;;2.73;2.10;;;20.80;80.90;;;;;;5111677;28;20040;-77
2021/06/06 03:36:37;;;;;;;2.00;1.42;;;20.80;80.90;;;;;;5091336;28;20270;-78
2021/06/06 03:39:14;;;;;;;3.45;2.33;;;20.80;80.60;;;;;;5109332;28;20019;-77
2021/06/06 03:41:41;;;;;;;2.72;1.67;;;20.70;80.50;;;;;;5111311;28;20026;-78
2021/06/06 03:44:07;;;;;;;3.90;1.85;;;20.70;80.20;;;;;;5111593;28;20031;-77
2021/06/06 03:46:34;;;;;;;3.08;1.80;;;20.70;80.40;;;;;;5111900;28;20122;-78
2021/06/06 03:49:00;;;;;;;2.17;1.70;;;20.70;80.10;;;;;;5111753;28;20028;-76
2021/06/06 03:51:27;;;;;;;2.55;1.58;;;20.70;80.10;;;;;;5111152;28;20068;-77
2021/06/06 03:53:53;;;;;;;2.70;1.65;;;20.70;80.20;;;;;;5110825;28;20039;-77
2021/06/06 03:56:20;;;;;;;2.33;1.55;;;20.70;80.80;;;;;;5110958;28;20024;-78
2021/06/06 03:58:47;;;;;;;2.05;1.48;;;20.70;79.90;;;;;;5111114;28;20501;-77
2021/06/06 04:01:12;;;;;;;3.38;2.35;;;20.70;80.00;;;;;;5111255;28;20051;-78
2021/06/06 04:03:38;;;;;;;4.97;1.85;;;20.70;79.70;;;;;;5111032;28;20116;-77
2021/06/06 04:06:04;;;;;;;2.33;1.88;;;20.70;79.80;;;;;;5111377;28;20038;-77
2021/06/06 04:08:31;;;;;;;2.08;1.70;;;20.60;79.40;;;;;;5111852;28;20166;-77
2021/06/06 04:10:57;;;;;;;3.00;1.77;;;20.60;79.60;;;;;;5110903;28;20024;-77
2021/06/06 04:13:23;;;;;;;2.45;1.70;;;20.60;79.40;;;;;;5110065;28;20356;-77
2021/06/06 04:15:49;;;;;;;2.60;1.73;;;20.60;79.40;;;;;;5110705;28;20034;-77
2021/06/06 04:18:19;;;;;;;2.35;1.58;;;20.60;79.20;;;;;;5110813;28;20030;-77
2021/06/06 04:20:46;;;;;;;1.48;1.20;;;20.60;79.00;;;;;;5111192;28;20036;-77
2021/06/06 04:23:12;;;;;;;3.65;1.90;;;20.60;78.90;;;;;;5110817;28;20027;-77
2021/06/06 04:25:39;;;;;;;3.22;1.70;;;20.60;79.00;;;;;;5111023;28;20028;-77
2021/06/06 04:28:06;;;;;;;2.22;1.77;;;20.60;78.90;;;;;;5111103;28;20479;-77
2021/06/06 04:30:32;;;;;;;2.08;1.50;;;20.60;78.80;;;;;;5110994;28;20395;-77
2021/06/06 04:33:00;;;;;;;2.30;1.80;;;20.50;78.70;;;;;;5111195;28;20052;-77
2021/06/06 04:35:26;;;;;;;2.40;1.80;;;20.60;78.60;;;;;;5111036;28;20050;-77
2021/06/06 04:37:52;;;;;;;3.70;1.80;;;20.50;78.60;;;;;;5111318;28;20055;-77
2021/06/06 04:40:18;;;;;;;2.42;1.67;;;20.50;78.70;;;;;;5110815;28;20031;-77
2021/06/06 04:42:44;;;;;;;3.38;1.92;;;20.50;78.40;;;;;;5111101;28;20483;-77
2021/06/06 04:45:12;;;;;;;2.80;1.95;;;20.50;78.30;;;;;;5111050;28;20034;-77
2021/06/06 04:47:38;;;;;;;2.38;1.83;;;20.50;78.30;;;;;;5110377;28;20439;-77
2021/06/06 04:50:06;;;;;;;3.15;1.80;;;20.50;78.30;;;;;;5110464;28;20107;-77
2021/06/06 04:52:36;;;;;;;2.20;1.60;;;20.50;78.30;;;;;;5111057;28;20028;-78
2021/06/06 04:55:06;;;;;;;2.45;1.65;;;20.50;78.10;;;;;;5110695;28;20433;-77
2021/06/06 04:57:32;;;;;;;4.03;2.20;;;20.50;78.20;;;;;;5111178;28;20494;-77
2021/06/06 04:59:57;;;;;;;2.63;1.60;;;20.50;78.10;;;;;;5110589;28;20039;-78
2021/06/06 05:02:23;;;;;;;2.92;1.55;;;20.50;78.10;;;;;;5110134;28;20030;-78
2021/06/06 05:04:48;;;;;;;1.75;1.23;;;20.50;78.00;;;;;;5110157;28;20027;-77
2021/06/06 05:07:14;;;;;;;1.83;1.40;;;20.50;78.00;;;;;;5112178;28;20084;-77
2021/06/06 05:09:39;;;;;;;2.28;1.58;;;20.50;78.00;;;;;;5114061;28;20070;-78
2021/06/06 05:12:06;;;;;;;3.58;1.55;;;20.50;77.90;;;;;;5113908;28;20024;-77
2021/06/06 05:14:32;;;;;;;1.90;1.27;;;20.50;78.00;;;;;;5113593;28;20028;-78
2021/06/06 05:16:57;;;;;;;1.83;1.40;;;20.50;77.90;;;;;;5112472;28;20475;-77
2021/06/06 05:19:23;;;;;;;2.20;1.52;;;20.50;77.90;;;;;;5114239;28;20028;-78
2021/06/06 05:21:49;;;;;;;4.55;1.83;;;20.50;77.90;;;;;;5113764;28;20032;-77
2021/06/06 05:24:15;;;;;;;2.05;1.42;;;20.50;77.80;;;;;;5113977;28;20434;-77
2021/06/06 05:26:40;;;;;;;2.08;1.58;;;20.40;77.80;;;;;;5112056;28;20023;-77
2021/06/06 05:29:06;;;;;;;2.58;1.70;;;20.40;77.80;;;;;;5113742;28;20040;-77
2021/06/06 05:31:33;;;;;;;2.95;1.42;;;20.40;77.70;;;;;;5113477;28;20019;-76
2021/06/06 05:33:59;;;;;;;2.67;1.40;;;20.40;77.70;;;;;;5113630;28;20027;-78
2021/06/06 05:36:24;;;;;;;2.28;1.60;;;20.40;77.60;;;;;;5113370;28;20758;-78
2021/06/06 05:38:50;;;;;;;2.22;1.25;;;20.50;77.70;;;;;;5114072;28;20392;-77
2021/06/06 05:41:16;;;;;;;2.88;1.33;;;20.40;77.60;;;;;;5113449;28;20023;-75
2021/06/06 05:43:41;;;;;;;2.20;1.58;;;20.40;77.50;;;;;;5113566;28;20055;-81
2021/06/06 05:46:14;;;;;;;3.40;1.70;;;20.40;77.50;;;;;;5112877;28;20032;-77
2021/06/06 05:48:39;;;;;;;2.80;1.63;;;20.40;77.50;;;;;;5113492;28;20044;-78
2021/06/06 05:51:05;;;;;;;2.42;1.50;;;20.40;77.50;;;;;;5113149;28;20038;-77
2021/06/06 05:53:35;;;;;;;3.15;1.73;;;20.40;77.50;;;;;;5113938;28;20483;-78
2021/06/06 05:56:00;;;;;;;2.55;1.52;;;20.50;77.60;;;;;;5113088;27;20055;-76
2021/06/06 05:58:26;;;;;;;3.22;1.70;;;20.40;77.40;;;;;;5113209;28;20507;-77
2021/06/06 06:00:52;;;;;;;2.50;1.40;;;20.40;77.40;;;;;;5113491;28;20027;-76
2021/06/06 06:03:18;;;;;;;1.75;1.33;;;20.50;77.40;;;;;;5112599;28;20115;-77
2021/06/06 06:05:44;;;;;;;2.03;1.30;;;20.50;77.40;;;;;;5113652;28;20106;-77
2021/06/06 06:08:22;;;;;;;1.83;1.42;;;20.40;77.40;;;;;;5113376;28;20483;-77
2021/06/06 06:10:49;;;;;;;2.40;1.75;;;20.40;77.30;;;;;;5113565;28;20382;-77
2021/06/06 06:13:17;;;;;;;2.10;1.33;;;20.50;77.30;;;;;;5113146;28;20102;-78
2021/06/06 06:15:42;;;;;;;2.10;1.50;;;20.40;77.30;;;;;;5113376;27;20028;-77
2021/06/06 06:18:10;;;;;;;2.08;1.40;;;20.40;77.30;;;;;;5111877;28;20025;-76
2021/06/06 06:20:36;;;;;;;2.50;1.55;;;20.40;77.30;;;;;;5113488;28;20031;-74
2021/06/06 06:23:02;;;;;;;2.42;1.63;;;20.50;77.40;;;;;;5113561;28;20020;-76
2021/06/06 06:25:28;;;;;;;2.40;1.58;;;20.40;77.30;;;;;;5113185;28;20102;-74
2021/06/06 06:27:53;;;;;;;4.30;1.67;;;20.40;77.30;;;;;;5112752;28;20119;-76
2021/06/06 06:30:26;;;;;;;3.55;1.80;;;20.40;77.30;;;;;;5112999;28;20028;-76
2021/06/06 06:32:52;;;;;;;4.53;1.63;;;20.40;77.20;;;;;;5111797;28;20102;-75
2021/06/06 06:35:18;;;;;;;4.50;1.50;;;20.50;77.70;;;;;;5111638;28;20028;-79
2021/06/06 06:37:44;;;;;;;3.80;1.60;;;20.50;77.90;;;;;;5113027;28;20115;-79
2021/06/06 06:40:12;;;;;;;5.30;1.88;;;20.50;77.80;;;;;;5112815;28;20153;-79
2021/06/06 06:42:38;;;;;;;3.45;1.60;;;20.50;77.90;;;;;;5112807;28;20095;-79
2021/06/06 06:45:07;;;;;;;3.15;1.92;;;20.50;78.10;;;;;;5112665;28;20133;-78
2021/06/06 06:47:33;;;;;;;3.63;1.50;;;20.50;78.10;;;;;;5112779;28;20024;-76
2021/06/06 06:49:59;;;;;;;3.95;2.03;;;20.50;78.90;;;;;;5113066;28;20028;-78
2021/06/06 06:52:25;;;;;;;3.42;2.15;;;20.50;78.20;;;;;;5112518;28;20030;-79
2021/06/06 06:54:51;;;;;;;3.85;1.75;;;20.60;78.30;;;;;;5111848;28;20031;-77
2021/06/06 06:57:17;;;;;;;9.95;2.67;;;20.60;78.40;;;;;;5111039;28;20020;-76
2021/06/06 06:59:42;;;;;;;15.27;12.77;;;20.60;78.40;;;;;;5110916;28;20055;-79
2021/06/06 07:02:08;;;;;;;9.18;5.13;;;20.60;78.50;;;;;;5118952;27;20096;-77
2021/06/06 07:04:34;;;;;;;11.10;5.15;;;20.60;78.90;;;;;;5133257;27;20118;-78
2021/06/06 07:06:59;;;;;;;10.70;5.18;;;20.60;79.20;;;;;;5124708;27;20072;-79
2021/06/06 07:09:27;;;;;;;10.35;4.60;;;20.60;79.50;;;;;;5132733;27;20027;-78
2021/06/06 07:11:56;;;;;;;9.00;4.57;;;20.70;79.90;;;;;;5133118;27;20031;-76
2021/06/06 07:14:22;;;;;;;7.07;4.63;;;20.70;79.70;;;;;;5131605;27;20360;-77
2021/06/06 07:16:48;;;;;;;15.88;4.78;;;20.70;79.40;;;;;;5114061;27;20034;-75
2021/06/06 07:19:14;;;;;;;7.03;4.07;;;20.70;79.80;;;;;;5110348;28;20039;-76
2021/06/06 07:21:39;;;;;;;7.80;4.38;;;20.70;79.80;;;;;;5111343;28;20028;-75
2021/06/06 07:24:06;;;;;;;16.40;4.85;;;20.70;79.70;;;;;;5111473;28;20441;-76
2021/06/06 07:26:39;;;;;;;10.55;4.57;;;20.70;79.40;;;;;;5112401;28;20031;-80
2021/06/06 07:29:09;;;;;;;10.38;4.25;;;20.70;79.20;;;;;;5109706;28;20031;-78
2021/06/06 07:31:36;;;;;;;9.40;4.10;;;20.80;79.10;;;;;;5111519;28;20036;-76
2021/06/06 07:34:03;;;;;;;7.22;3.72;;;20.80;79.30;;;;;;5103853;28;20032;-77
2021/06/06 07:36:29;;;;;;;7.53;3.60;;;20.80;79.20;;;;;;5109956;27;20690;-78
2021/06/06 07:38:55;;;;;;;12.25;4.70;;;20.80;79.20;;;;;;5108126;28;20098;-79
2021/06/06 07:41:22;;;;;;;7.90;4.25;;;20.80;79.30;;;;;;5111356;28;20027;-79
2021/06/06 07:43:47;;;;;;;13.15;4.28;;;20.80;79.40;;;;;;5110294;28;20024;-79
2021/06/06 07:46:14;;;;;;;10.18;4.10;;;20.80;79.50;;;;;;5109031;28;20027;-78
2021/06/06 07:48:44;;;;;;;6.45;4.15;;;20.80;79.50;;;;;;5108753;28;20032;-79
2021/06/06 07:51:10;;;;;;;7.20;3.25;;;20.90;79.50;;;;;;5108552;28;20523;-79
2021/06/06 07:53:36;;;;;;;8.77;3.55;;;20.90;79.40;;;;;;5108769;28;20030;-81
2021/06/06 07:56:02;;;;;;;7.38;3.72;;;20.90;79.40;;;;;;5111954;28;20095;-78
2021/06/06 07:58:31;;;;;;;6.15;2.97;;;20.90;79.60;;;;;;5110952;28;20549;-78
2021/06/06 08:00:57;;;;;;;8.77;3.47;;;20.90;79.60;;;;;;5109400;28;20019;-78
2021/06/06 08:03:24;;;;;;;7.05;3.72;;;20.90;80.30;;;;;;5109397;28;20023;-77
2021/06/06 08:05:50;;;;;;;5.88;2.90;;;21.00;79.60;;;;;;5111461;28;20038;-78
2021/06/06 08:08:17;;;;;;;7.22;2.85;;;21.00;79.60;;;;;;5108698;28;20032;-77
2021/06/06 08:10:47;;;;;;;8.30;2.47;;;21.00;79.70;;;;;;5109940;28;20020;-77
2021/06/06 08:13:13;;;;;;;7.55;3.13;;;21.00;79.40;;;;;;5105867;28;20058;-77
2021/06/06 08:15:40;;;;;;;7.95;3.10;;;21.00;79.40;;;;;;5109718;28;20023;-77
2021/06/06 08:18:12;;;;;;;8.05;3.30;;;21.00;80.00;;;;;;5111579;28;20503;-76
2021/06/06 08:20:42;;;;;;;8.90;2.17;;;21.00;80.20;;;;;;5111012;28;20028;-79
2021/06/06 08:23:09;;;;;;;6.60;3.10;;;21.00;80.50;;;;;;5109759;28;20032;-78
2021/06/06 08:25:36;;;;;;;4.38;2.33;;;21.10;80.30;;;;;;5110820;28;20090;-77
2021/06/06 08:28:03;;;;;;;7.20;2.58;;;21.10;80.30;;;;;;5110921;28;20122;-77
2021/06/06 08:30:34;;;;;;;6.15;2.00;;;21.10;80.20;;;;;;5110039;28;20027;-80
2021/06/06 08:32:59;;;;;;;5.72;2.15;;;21.10;80.30;;;;;;5108374;28;20039;-76
2021/06/06 08:35:25;;;;;;;4.88;2.55;;;21.10;80.00;;;;;;5107880;28;20012;-80
2021/06/06 08:37:51;;;;;;;8.90;2.70;;;21.20;79.80;;;;;;5110456;28;20136;-76
2021/06/06 08:40:32;;;;;;;4.28;1.85;;;21.20;79.70;;;;;;5110962;28;20102;-78
2021/06/06 08:42:59;;;;;;;6.65;2.35;;;21.20;79.60;;;;;;5112998;28;20024;-78
2021/06/06 08:45:54;;;;;;;4.63;1.92;;;21.20;79.60;;;;;;5109647;28;20042;-77
2021/06/06 08:48:22;;;;;;;8.67;2.80;;;21.20;79.40;;;;;;5112914;28;20040;-81
2021/06/06 08:50:55;;;;;;;3.58;2.00;;;21.20;79.80;;;;;;5115030;28;20032;-79
2021/06/06 08:53:29;;;;;;;8.15;2.35;;;21.20;79.90;;;;;;5115722;28;20020;-77
2021/06/06 08:56:20;;;;;;;4.25;1.92;;;21.20;79.70;;;;;;5113365;28;20091;-83
2021/06/06 08:58:51;;;;;;;8.85;2.50;;;21.20;80.50;;;;;;5113044;28;20106;-86
2021/06/06 09:01:17;;;;;;;8.75;2.85;;;21.20;81.60;;;;;;5113544;28;20070;-79
2021/06/06 09:03:43;;;;;;;5.72;2.60;;;21.20;82.20;;;;;;5113286;28;20070;-80
2021/06/06 09:06:18;;;;;;;5.22;2.40;;;21.30;84.30;;;;;;5111471;28;20031;-80
2021/06/06 09:08:43;;;;;;;7.70;3.60;;;21.30;82.40;;;;;;5113430;28;20071;-81
2021/06/06 09:11:14;;;;;;;10.02;2.75;;;21.30;84.20;;;;;;5113584;28;20062;-83
2021/06/06 09:13:40;;;;;;;6.55;2.45;;;21.30;84.30;;;;;;5113630;28;20433;-81
2021/06/06 09:16:20;;;;;;;7.18;3.42;;;21.30;84.90;;;;;;5110331;28;20494;-82
2021/06/06 09:18:47;;;;;;;9.02;3.40;;;21.30;84.70;;;;;;5110749;28;20031;-80
2021/06/06 09:21:20;;;;;;;8.50;3.70;;;21.30;84.10;;;;;;5112620;28;20034;-84
2021/06/06 09:24:02;;;;;;;10.63;3.95;;;21.30;83.40;;;;;;5112434;28;20031;-81
2021/06/06 09:26:27;;;;;;;9.32;3.30;;;21.30;83.80;;;;;;5112459;28;20059;-84
2021/06/06 09:29:14;;;;;;;7.47;4.25;;;21.30;83.50;;;;;;5114381;28;20063;-92
2021/06/06 09:31:40;;;;;;;6.93;3.65;;;21.30;83.10;;;;;;5112308;28;20103;-84
2021/06/06 09:34:08;;;;;;;14.02;4.85;;;21.30;83.10;;;;;;5106363;28;20123;-89
2021/06/06 09:36:44;;;;;;;9.02;4.20;;;21.40;82.50;;;;;;5110789;28;20564;-82
2021/06/06 09:39:16;;;;;;;7.03;4.65;;;21.30;82.00;;;;;;5111637;28;20116;-84
2021/06/06 09:41:51;;;;;;;7.55;4.13;;;21.40;82.00;;;;;;5113780;28;20034;-85
2021/06/06 09:44:26;;;;;;;6.75;4.30;;;21.40;82.30;;;;;;5111242;28;20032;-86
2021/06/06 09:47:14;;;;;;;11.27;4.45;;;21.40;82.90;;;;;;5110832;28;20126;-90
2021/06/06 09:49:48;;;;;;;8.70;3.47;;;21.40;82.70;;;;;;5112194;28;20050;-87
2021/06/06 09:52:20;;;;;;;8.65;4.00;;;21.40;83.30;;;;;;5112755;28;20089;-89
2021/06/06 09:54:53;;;;;;;6.10;3.47;;;21.50;83.40;;;;;;5112967;28;20031;-88
2021/06/06 09:57:21;;;;;;;9.38;4.22;;;21.50;83.50;;;;;;5112208;28;20030;-91
2021/06/06 09:59:48;;;;;;;8.05;3.65;;;21.50;83.80;;;;;;5114167;28;20049;-82
2021/06/06 10:02:30;;;;;;;5.50;3.25;;;21.50;83.60;;;;;;5112226;28;20177;-82
2021/06/06 10:05:04;;;;;;;7.05;3.30;;;21.50;83.70;;;;;;5109722;28;20039;-81
2021/06/06 10:07:34;;;;;;;7.82;3.22;;;21.60;83.90;;;;;;5111953;28;20433;-84
2021/06/06 10:10:07;;;;;;;8.95;3.85;;;21.60;83.90;;;;;;5113022;27;20027;-82
2021/06/06 10:12:39;;;;;;;7.45;3.05;;;21.60;83.90;;;;;;5112136;28;20034;-83
2021/06/06 10:15:09;;;;;;;7.43;3.28;;;21.60;84.10;;;;;;5092798;28;20423;-83
2021/06/06 10:17:39;;;;;;;7.75;2.95;;;21.60;84.30;;;;;;5092931;28;20070;-78
2021/06/06 10:20:25;;;;;;;6.28;3.30;;;21.60;84.20;;;;;;5111549;28;20039;-78
2021/06/06 10:22:59;;;;;;;7.25;3.60;;;21.60;83.90;;;;;;5113388;28;20363;-78
2021/06/06 10:25:42;;;;;;;9.20;3.60;;;21.70;83.90;;;;;;5109694;28;20106;-78
2021/06/06 10:28:08;;;;;;;9.85;2.80;;;21.70;83.60;;;;;;5090950;28;20517;-76
2021/06/06 10:30:42;;;;;;;12.38;3.15;;;21.70;83.70;;;;;;5093566;28;20099;-76
2021/06/06 10:33:16;;;;;;;6.20;3.35;;;21.70;83.90;;;;;;5112877;28;20077;-77
2021/06/06 10:35:42;;;;;;;15.77;3.58;;;21.70;83.70;;;;;;5107960;28;20459;-77
2021/06/06 10:38:08;;;;;;;6.00;3.15;;;21.70;83.40;;;;;;5111696;28;20503;-77
2021/06/06 10:40:47;;;;;;;8.35;3.33;;;21.80;83.80;;;;;;5110743;28;20020;-78
2021/06/06 10:43:28;;;;;;;8.57;3.03;;;21.80;83.70;;;;;;5112489;28;20028;-77
2021/06/06 10:46:12;;;;;;;5.05;2.88;;;21.80;83.70;;;;;;5111588;28;20035;-77
2021/06/06 10:48:47;;;;;;;4.82;3.05;;;21.80;83.60;;;;;;5112669;28;20032;-77
2021/06/06 10:51:24;;;;;;;13.07;3.20;;;21.80;83.40;;;;;;5110845;28;20149;-77
2021/06/06 10:53:59;;;;;;;4.65;2.78;;;21.80;83.60;;;;;;5111166;28;20042;-77
2021/06/06 10:56:36;;;;;;;7.65;3.28;;;21.90;83.50;;;;;;5113335;28;20034;-77
2021/06/06 10:59:08;;;;;;;5.20;2.70;;;21.90;83.40;;;;;;5111225;28;20487;-77
2021/06/06 11:01:43;;;;;;;7.40;3.08;;;21.90;83.20;;;;;;5112594;28;20027;-77
2021/06/06 11:04:31;;;;;;;3.87;2.33;;;21.90;83.20;;;;;;5108574;28;20518;-77
2021/06/06 11:07:26;;;;;;;8.07;3.10;;;22.00;83.80;;;;;;5110468;28;20034;-76
2021/06/06 11:10:06;;;;;;;5.50;2.85;;;22.00;83.00;;;;;;5111055;28;20040;-77
2021/06/06 11:12:35;;;;;;;5.18;2.85;;;22.00;83.00;;;;;;5112239;28;20035;-80
2021/06/06 11:15:17;;;;;;;7.70;2.45;;;22.00;82.80;;;;;;5112638;28;20012;-82
2021/06/06 11:17:43;;;;;;;5.57;2.60;;;22.00;82.90;;;;;;5110407;28;20031;-81
2021/06/06 11:20:11;;;;;;;6.53;2.22;;;22.00;82.50;;;;;;5109894;28;20027;-83
2021/06/06 11:22:39;;;;;;;10.20;2.58;;;22.10;82.60;;;;;;5112267;28;20083;-82
2021/06/06 11:25:23;;;;;;;4.90;2.30;;;22.10;82.50;;;;;;5110953;28;20524;-81
2021/06/06 11:28:04;;;;;;;4.90;2.30;;;22.10;82.10;;;;;;5111614;28;20499;-79
2021/06/06 11:30:29;;;;;;;6.57;2.58;;;22.00;82.10;;;;;;5111529;28;20043;-79
2021/06/06 11:33:00;;;;;;;6.85;2.58;;;22.10;82.00;;;;;;5111285;28;20454;-81
2021/06/06 11:35:34;;;;;;;5.93;2.90;;;22.10;82.00;;;;;;5109276;28;20031;-81
2021/06/06 11:38:27;;;;;;;6.18;2.47;;;22.10;81.80;;;;;;5111429;28;20031;-80
2021/06/06 11:41:07;;;;;;;9.25;2.63;;;22.10;81.30;;;;;;5111007;28;20023;-80
2021/06/06 11:43:41;;;;;;;5.88;3.25;;;22.10;80.70;;;;;;5109217;28;20035;-79
2021/06/06 11:46:29;;;;;;;6.93;2.38;;;22.10;80.30;;;;;;5111473;28;20032;-80
2021/06/06 11:49:03;;;;;;;11.40;3.13;;;22.10;79.70;;;;;;5110560;28;20406;-80
2021/06/06 11:51:39;;;;;;;5.40;2.92;;;22.20;79.80;;;;;;5111282;28;20057;-80
2021/06/06 11:54:45;;;;;;;5.93;2.97;;;22.20;79.50;;;;;;5109384;28;20035;-79
2021/06/06 11:57:33;;;;;;;7.65;3.70;;;22.20;79.10;;;;;;5071254;28;20368;-79
2021/06/06 12:00:16;;;;;;;5.78;3.38;;;22.20;78.90;;;;;;5111552;28;20026;-79
2021/06/06 12:02:43;;;;;;;4.68;3.50;;;22.20;78.40;;;;;;5111581;28;20119;-79
2021/06/06 12:05:29;;;;;;;4.68;2.53;;;22.20;78.40;;;;;;5109057;28;20383;-79
2021/06/06 12:08:06;;;;;;;4.78;3.03;;;22.20;77.70;;;;;;5109851;28;20435;-79
2021/06/06 12:10:36;;;;;;;4.95;2.88;;;22.20;77.40;;;;;;5110103;28;20047;-80
2021/06/06 12:13:05;;;;;;;4.45;3.03;;;22.30;76.90;;;;;;5109884;28;20023;-79
2021/06/06 12:15:40;;;;;;;5.85;3.50;;;22.30;76.60;;;;;;5112620;28;20028;-79
2021/06/06 12:18:16;;;;;;;6.82;3.35;;;22.30;76.60;;;;;;5114716;27;20465;-79
2021/06/06 12:20:49;;;;;;;6.40;3.38;;;22.30;76.20;;;;;;5114747;28;20167;-79
2021/06/06 12:23:15;;;;;;;5.63;2.85;;;22.30;76.10;;;;;;5122426;27;20548;-79
2021/06/06 12:25:41;;;;;;;9.18;3.20;;;22.30;75.50;;;;;;5136031;27;20015;-79
2021/06/06 12:28:21;;;;;;;4.38;2.72;;;22.30;76.20;;;;;;5118845;27;20503;-79
2021/06/06 12:30:47;;;;;;;4.72;2.75;;;22.40;76.30;;;;;;5115155;28;20048;-80
2021/06/06 12:33:15;;;;;;;4.30;2.63;;;22.40;75.90;;;;;;5115174;28;20028;-79
2021/06/06 12:35:49;;;;;;;4.72;2.75;;;22.40;75.80;;;;;;5113312;28;20530;-79
2021/06/06 12:38:16;;;;;;;5.05;2.70;;;22.40;75.80;;;;;;5111934;28;20495;-79
2021/06/06 12:40:42;;;;;;;5.85;2.50;;;22.40;75.60;;;;;;5114091;28;20028;-79
2021/06/06 12:43:10;;;;;;;6.38;2.70;;;22.40;75.50;;;;;;5113155;28;20079;-80
2021/06/06 12:45:41;;;;;;;4.72;2.85;;;22.50;75.40;;;;;;5115176;28;20032;-79
2021/06/06 12:48:33;;;;;;;4.93;2.72;;;22.40;75.40;;;;;;5113967;28;20024;-79
2021/06/06 12:51:12;;;;;;;3.40;2.53;;;22.50;74.90;;;;;;5114180;28;20065;-79
2021/06/06 12:53:37;;;;;;;3.28;2.55;;;22.50;74.40;;;;;;5115176;28;20020;-79
2021/06/06 12:56:12;;;;;;;3.22;2.70;;;22.50;74.10;;;;;;5113277;28;20023;-79
2021/06/06 12:58:39;;;;;;;8.83;2.87;;;22.60;74.30;;;;;;5115050;28;20020;-77
2021/06/06 13:01:21;;;;;;;6.43;2.80;;;22.60;73.70;;;;;;5112890;28;20020;-78
2021/06/06 13:03:48;;;;;;;5.55;2.60;;;22.50;73.20;;;;;;5114590;28;20057;-77
2021/06/06 13:06:25;;;;;;;3.55;2.20;;;22.60;73.90;;;;;;5113579;28;20055;-79